sensor_id;sensor_type;location;lat;lon;timestamp;temperature;humidity
19050;DHT22;9657;45.940;12.840;2023-04-24T00:01:13;19.10;66.20
19050;DHT22;9657;45.940;12.840;2023-04-24T00:03:40;19.00;66.20
19050;DHT22;9657;45.940;12.840;2023-04-24T00:06:07;19.00;66.10
19050;DHT22;9657;45.940;12.840;2023-04-24T00:08:35;19.00;66.20
19050;DHT22;9657;45.940;12.840;2023-04-24T00:11:02;19.00;66.20
19050;DHT22;9657;45.940;12.840;2023-04-24T00:13:29;19.00;66.20
19050;DHT22;9657;45.940;12.840;2023-04-24T00:15:56;19.00;66.20
19050;DHT22;9657;45.940;12.840;2023-04-24T00:18:24;19.00;66.20
19050;DHT22;9657;45.940;12.840;2023-04-24T00:20:51;19.00;66.20
19050;DHT22;9657;45.940;12.840;2023-04-24T00:23:18;19.10;66.30
19050;DHT22;9657;45.940;12.840;2023-04-24T00:25:45;19.00;66.20
19050;DHT22;9657;45.940;12.840;2023-04-24T00:28:12;19.00;66.20
19050;DHT22;9657;45.940;12.840;2023-04-24T00:30:40;19.00;66.20
19050;DHT22;9657;45.940;12.840;2023-04-24T00:33:07;19.00;66.20
19050;DHT22;9657;45.940;12.840;2023-04-24T00:35:35;19.00;66.20
19050;DHT22;9657;45.940;12.840;2023-04-24T00:38:02;19.00;66.20
19050;DHT22;9657;45.940;12.840;2023-04-24T00:40:30;19.00;66.30
19050;DHT22;9657;45.940;12.840;2023-04-24T00:42:57;19.00;66.30
19050;DHT22;9657;45.940;12.840;2023-04-24T00:45:24;19.00;66.30
19050;DHT22;9657;45.940;12.840;2023-04-24T00:47:52;19.00;66.30
19050;DHT22;9657;45.940;12.840;2023-04-24T00:50:21;19.00;66.30
19050;DHT22;9657;45.940;12.840;2023-04-24T00:52:49;19.00;66.30
19050;DHT22;9657;45.940;12.840;2023-04-24T00:55:17;19.00;66.30
19050;DHT22;9657;45.940;12.840;2023-04-24T00:57:45;19.00;67.10
19050;DHT22;9657;45.940;12.840;2023-04-24T01:03:01;19.00;66.30
19050;DHT22;9657;45.940;12.840;2023-04-24T01:05:49;19.00;66.30
19050;DHT22;9657;45.940;12.840;2023-04-24T01:08:18;19.00;66.30
19050;DHT22;9657;45.940;12.840;2023-04-24T01:10:46;19.00;66.30
19050;DHT22;9657;45.940;12.840;2023-04-24T01:13:14;19.00;66.30
19050;DHT22;9657;45.940;12.840;2023-04-24T01:15:41;19.00;66.30
19050;DHT22;9657;45.940;12.840;2023-04-24T01:18:09;19.00;66.30
19050;DHT22;9657;45.940;12.840;2023-04-24T01:20:36;19.00;66.30
19050;DHT22;9657;45.940;12.840;2023-04-24T01:23:07;19.00;66.30
19050;DHT22;9657;45.940;12.840;2023-04-24T01:25:34;19.00;66.30
19050;DHT22;9657;45.940;12.840;2023-04-24T01:28:02;19.00;66.30
19050;DHT22;9657;45.940;12.840;2023-04-24T01:30:31;19.00;66.30
19050;DHT22;9657;45.940;12.840;2023-04-24T01:32:58;19.00;66.40
19050;DHT22;9657;45.940;12.840;2023-04-24T01:35:26;19.00;66.50
19050;DHT22;9657;45.940;12.840;2023-04-24T01:37:53;19.00;66.40
19050;DHT22;9657;45.940;12.840;2023-04-24T01:40:21;19.00;66.30
19050;DHT22;9657;45.940;12.840;2023-04-24T01:42:49;19.00;66.40
19050;DHT22;9657;45.940;12.840;2023-04-24T01:45:16;19.00;66.30
19050;DHT22;9657;45.940;12.840;2023-04-24T01:47:44;18.90;66.30
19050;DHT22;9657;45.940;12.840;2023-04-24T01:50:12;18.90;66.40
19050;DHT22;9657;45.940;12.840;2023-04-24T01:52:39;19.00;66.40
19050;DHT22;9657;45.940;12.840;2023-04-24T01:55:07;18.90;66.30
19050;DHT22;9657;45.940;12.840;2023-04-24T01:57:35;18.90;66.30
19050;DHT22;9657;45.940;12.840;2023-04-24T02:00:03;18.90;66.30
19050;DHT22;9657;45.940;12.840;2023-04-24T02:02:31;18.90;66.40
19050;DHT22;9657;45.940;12.840;2023-04-24T02:04:58;18.90;66.30
19050;DHT22;9657;45.940;12.840;2023-04-24T02:07:25;18.90;66.30
19050;DHT22;9657;45.940;12.840;2023-04-24T02:09:52;18.90;66.40
19050;DHT22;9657;45.940;12.840;2023-04-24T02:12:21;18.90;66.30
19050;DHT22;9657;45.940;12.840;2023-04-24T02:14:49;18.90;66.40
19050;DHT22;9657;45.940;12.840;2023-04-24T02:17:16;18.90;66.30
19050;DHT22;9657;45.940;12.840;2023-04-24T02:19:44;18.90;66.40
19050;DHT22;9657;45.940;12.840;2023-04-24T02:22:11;18.90;66.40
19050;DHT22;9657;45.940;12.840;2023-04-24T02:24:39;18.90;66.40
19050;DHT22;9657;45.940;12.840;2023-04-24T02:27:06;18.90;66.40
19050;DHT22;9657;45.940;12.840;2023-04-24T02:29:33;18.90;66.50
19050;DHT22;9657;45.940;12.840;2023-04-24T02:32:01;18.90;66.40
19050;DHT22;9657;45.940;12.840;2023-04-24T02:34:28;18.90;66.50
19050;DHT22;9657;45.940;12.840;2023-04-24T02:36:55;18.90;66.40
19050;DHT22;9657;45.940;12.840;2023-04-24T02:39:22;18.90;66.50
19050;DHT22;9657;45.940;12.840;2023-04-24T02:41:49;18.90;66.40
19050;DHT22;9657;45.940;12.840;2023-04-24T02:44:16;18.90;66.40
19050;DHT22;9657;45.940;12.840;2023-04-24T02:46:44;18.90;66.40
19050;DHT22;9657;45.940;12.840;2023-04-24T02:49:12;18.90;66.40
19050;DHT22;9657;45.940;12.840;2023-04-24T02:51:39;18.90;66.40
19050;DHT22;9657;45.940;12.840;2023-04-24T02:54:07;18.90;66.50
19050;DHT22;9657;45.940;12.840;2023-04-24T02:56:35;18.90;66.50
19050;DHT22;9657;45.940;12.840;2023-04-24T02:59:02;18.90;66.30
19050;DHT22;9657;45.940;12.840;2023-04-24T03:01:29;18.90;66.40
19050;DHT22;9657;45.940;12.840;2023-04-24T03:03:57;18.90;66.40
19050;DHT22;9657;45.940;12.840;2023-04-24T03:06:25;18.90;66.40
19050;DHT22;9657;45.940;12.840;2023-04-24T03:08:53;18.90;66.50
19050;DHT22;9657;45.940;12.840;2023-04-24T03:11:20;18.90;66.40
19050;DHT22;9657;45.940;12.840;2023-04-24T03:13:47;18.90;66.40
19050;DHT22;9657;45.940;12.840;2023-04-24T03:16:14;18.90;66.40
19050;DHT22;9657;45.940;12.840;2023-04-24T03:18:42;18.90;66.40
19050;DHT22;9657;45.940;12.840;2023-04-24T03:21:09;18.90;66.30
19050;DHT22;9657;45.940;12.840;2023-04-24T03:23:37;18.90;66.40
19050;DHT22;9657;45.940;12.840;2023-04-24T03:26:04;18.90;66.40
19050;DHT22;9657;45.940;12.840;2023-04-24T03:28:31;18.90;66.40
19050;DHT22;9657;45.940;12.840;2023-04-24T03:30:58;18.90;66.40
19050;DHT22;9657;45.940;12.840;2023-04-24T03:33:25;18.90;66.50
19050;DHT22;9657;45.940;12.840;2023-04-24T03:35:52;18.90;66.40
19050;DHT22;9657;45.940;12.840;2023-04-24T03:38:19;18.90;66.40
19050;DHT22;9657;45.940;12.840;2023-04-24T03:40:48;18.90;66.40
19050;DHT22;9657;45.940;12.840;2023-04-24T03:43:15;18.90;66.50
19050;DHT22;9657;45.940;12.840;2023-04-24T03:45:42;18.80;66.30
19050;DHT22;9657;45.940;12.840;2023-04-24T03:48:09;18.90;66.40
19050;DHT22;9657;45.940;12.840;2023-04-24T03:50:36;18.90;66.40
19050;DHT22;9657;45.940;12.840;2023-04-24T03:53:03;18.90;66.40
19050;DHT22;9657;45.940;12.840;2023-04-24T03:55:30;18.90;66.40
19050;DHT22;9657;45.940;12.840;2023-04-24T03:57:59;18.90;66.40
19050;DHT22;9657;45.940;12.840;2023-04-24T04:00:26;18.80;66.30
19050;DHT22;9657;45.940;12.840;2023-04-24T04:02:53;18.80;66.30
19050;DHT22;9657;45.940;12.840;2023-04-24T04:05:20;18.80;66.30
19050;DHT22;9657;45.940;12.840;2023-04-24T04:07:47;18.80;66.40
19050;DHT22;9657;45.940;12.840;2023-04-24T04:10:14;18.90;66.40
19050;DHT22;9657;45.940;12.840;2023-04-24T04:12:42;18.80;66.30
19050;DHT22;9657;45.940;12.840;2023-04-24T04:15:11;18.90;66.40
19050;DHT22;9657;45.940;12.840;2023-04-24T04:17:38;18.80;66.30
19050;DHT22;9657;45.940;12.840;2023-04-24T04:20:06;18.80;66.30
19050;DHT22;9657;45.940;12.840;2023-04-24T04:22:35;18.80;66.30
19050;DHT22;9657;45.940;12.840;2023-04-24T04:25:02;18.90;66.40
19050;DHT22;9657;45.940;12.840;2023-04-24T04:27:30;18.80;66.30
19050;DHT22;9657;45.940;12.840;2023-04-24T04:29:58;18.90;66.40
19050;DHT22;9657;45.940;12.840;2023-04-24T04:32:28;18.90;66.40
19050;DHT22;9657;45.940;12.840;2023-04-24T04:34:55;18.90;66.40
19050;DHT22;9657;45.940;12.840;2023-04-24T04:37:22;18.80;66.30
19050;DHT22;9657;45.940;12.840;2023-04-24T04:39:49;18.80;66.30
19050;DHT22;9657;45.940;12.840;2023-04-24T04:42:16;18.80;66.40
19050;DHT22;9657;45.940;12.840;2023-04-24T04:44:44;18.80;66.30
19050;DHT22;9657;45.940;12.840;2023-04-24T04:47:11;18.80;66.30
19050;DHT22;9657;45.940;12.840;2023-04-24T04:49:40;18.80;66.30
19050;DHT22;9657;45.940;12.840;2023-04-24T04:52:08;18.80;66.30
19050;DHT22;9657;45.940;12.840;2023-04-24T04:54:35;18.80;66.30
19050;DHT22;9657;45.940;12.840;2023-04-24T04:57:02;18.80;66.30
19050;DHT22;9657;45.940;12.840;2023-04-24T04:59:29;18.80;66.40
19050;DHT22;9657;45.940;12.840;2023-04-24T05:01:56;18.80;66.50
19050;DHT22;9657;45.940;12.840;2023-04-24T05:04:23;18.80;66.50
19050;DHT22;9657;45.940;12.840;2023-04-24T05:06:52;18.80;66.50
19050;DHT22;9657;45.940;12.840;2023-04-24T05:09:19;18.80;66.60
19050;DHT22;9657;45.940;12.840;2023-04-24T05:11:46;18.80;66.60
19050;DHT22;9657;45.940;12.840;2023-04-24T05:14:13;18.80;66.60
19050;DHT22;9657;45.940;12.840;2023-04-24T05:16:40;18.80;66.60
19050;DHT22;9657;45.940;12.840;2023-04-24T05:19:07;18.80;66.70
19050;DHT22;9657;45.940;12.840;2023-04-24T05:21:34;18.80;66.70
19050;DHT22;9657;45.940;12.840;2023-04-24T05:24:03;18.80;66.70
19050;DHT22;9657;45.940;12.840;2023-04-24T05:26:30;18.80;66.70
19050;DHT22;9657;45.940;12.840;2023-04-24T05:28:57;18.80;66.80
19050;DHT22;9657;45.940;12.840;2023-04-24T05:31:24;18.80;66.80
19050;DHT22;9657;45.940;12.840;2023-04-24T05:33:51;18.80;66.80
19050;DHT22;9657;45.940;12.840;2023-04-24T05:36:18;18.80;66.80
19050;DHT22;9657;45.940;12.840;2023-04-24T05:38:45;18.80;66.80
19050;DHT22;9657;45.940;12.840;2023-04-24T05:41:14;18.80;66.90
19050;DHT22;9657;45.940;12.840;2023-04-24T05:43:41;18.80;66.90
19050;DHT22;9657;45.940;12.840;2023-04-24T05:46:08;18.80;67.00
19050;DHT22;9657;45.940;12.840;2023-04-24T05:48:35;18.80;67.00
19050;DHT22;9657;45.940;12.840;2023-04-24T05:51:02;18.80;67.00
19050;DHT22;9657;45.940;12.840;2023-04-24T05:53:29;18.80;67.00
19050;DHT22;9657;45.940;12.840;2023-04-24T05:55:56;18.80;67.00
19050;DHT22;9657;45.940;12.840;2023-04-24T05:58:24;18.80;67.00
19050;DHT22;9657;45.940;12.840;2023-04-24T06:00:51;18.80;67.00
19050;DHT22;9657;45.940;12.840;2023-04-24T06:03:18;18.80;67.00
19050;DHT22;9657;45.940;12.840;2023-04-24T06:05:45;18.80;67.00
19050;DHT22;9657;45.940;12.840;2023-04-24T06:08:12;18.80;67.00
19050;DHT22;9657;45.940;12.840;2023-04-24T06:10:39;18.80;67.10
19050;DHT22;9657;45.940;12.840;2023-04-24T06:13:06;18.80;67.00
19050;DHT22;9657;45.940;12.840;2023-04-24T06:15:35;18.80;67.00
19050;DHT22;9657;45.940;12.840;2023-04-24T06:18:02;18.80;67.00
19050;DHT22;9657;45.940;12.840;2023-04-24T06:20:29;18.80;67.00
19050;DHT22;9657;45.940;12.840;2023-04-24T06:22:56;18.80;67.00
19050;DHT22;9657;45.940;12.840;2023-04-24T06:25:25;18.80;67.00
19050;DHT22;9657;45.940;12.840;2023-04-24T06:27:52;18.80;67.00
19050;DHT22;9657;45.940;12.840;2023-04-24T06:30:19;18.80;67.00
19050;DHT22;9657;45.940;12.840;2023-04-24T06:32:47;18.80;67.00
19050;DHT22;9657;45.940;12.840;2023-04-24T06:35:14;18.80;67.00
19050;DHT22;9657;45.940;12.840;2023-04-24T06:37:42;18.80;67.00
19050;DHT22;9657;45.940;12.840;2023-04-24T06:40:10;18.80;67.00
19050;DHT22;9657;45.940;12.840;2023-04-24T06:42:37;18.80;67.00
19050;DHT22;9657;45.940;12.840;2023-04-24T06:45:05;18.80;67.00
19050;DHT22;9657;45.940;12.840;2023-04-24T06:47:32;18.80;67.00
19050;DHT22;9657;45.940;12.840;2023-04-24T06:50:01;18.80;67.00
19050;DHT22;9657;45.940;12.840;2023-04-24T06:52:28;18.80;67.00
19050;DHT22;9657;45.940;12.840;2023-04-24T06:55:00;18.80;67.00
19050;DHT22;9657;45.940;12.840;2023-04-24T06:57:27;18.80;67.00
19050;DHT22;9657;45.940;12.840;2023-04-24T06:59:54;18.80;67.00
19050;DHT22;9657;45.940;12.840;2023-04-24T07:02:22;18.80;67.00
19050;DHT22;9657;45.940;12.840;2023-04-24T07:04:49;18.80;67.00
19050;DHT22;9657;45.940;12.840;2023-04-24T07:07:17;18.80;67.00
19050;DHT22;9657;45.940;12.840;2023-04-24T07:09:44;18.80;67.10
19050;DHT22;9657;45.940;12.840;2023-04-24T07:12:11;18.70;67.00
19050;DHT22;9657;45.940;12.840;2023-04-24T07:14:39;18.70;67.00
19050;DHT22;9657;45.940;12.840;2023-04-24T07:17:06;18.70;67.00
19050;DHT22;9657;45.940;12.840;2023-04-24T07:19:33;18.80;67.10
19050;DHT22;9657;45.940;12.840;2023-04-24T07:22:00;18.80;67.10
19050;DHT22;9657;45.940;12.840;2023-04-24T07:24:30;18.70;67.30
19050;DHT22;9657;45.940;12.840;2023-04-24T07:26:58;18.70;67.10
19050;DHT22;9657;45.940;12.840;2023-04-24T07:29:26;18.70;67.10
19050;DHT22;9657;45.940;12.840;2023-04-24T07:31:53;18.70;67.20
19050;DHT22;9657;45.940;12.840;2023-04-24T07:34:22;18.80;67.20
19050;DHT22;9657;45.940;12.840;2023-04-24T07:36:49;18.70;67.20
19050;DHT22;9657;45.940;12.840;2023-04-24T07:39:16;18.80;67.20
19050;DHT22;9657;45.940;12.840;2023-04-24T07:41:44;18.70;67.30
19050;DHT22;9657;45.940;12.840;2023-04-24T07:44:11;18.80;67.30
19050;DHT22;9657;45.940;12.840;2023-04-24T07:46:38;18.70;67.20
19050;DHT22;9657;45.940;12.840;2023-04-24T07:49:05;18.80;67.30
19050;DHT22;9657;45.940;12.840;2023-04-24T07:51:33;18.70;67.30
19050;DHT22;9657;45.940;12.840;2023-04-24T07:54:03;18.70;68.10
19050;DHT22;9657;45.940;12.840;2023-04-24T07:56:31;18.70;67.30
19050;DHT22;9657;45.940;12.840;2023-04-24T07:59:00;18.70;67.30
19050;DHT22;9657;45.940;12.840;2023-04-24T08:01:27;18.70;67.30
19050;DHT22;9657;45.940;12.840;2023-04-24T08:03:54;18.70;67.30
19050;DHT22;9657;45.940;12.840;2023-04-24T08:06:22;18.70;68.10
19050;DHT22;9657;45.940;12.840;2023-04-24T08:08:49;18.70;67.30
19050;DHT22;9657;45.940;12.840;2023-04-24T08:11:17;18.70;67.30
19050;DHT22;9657;45.940;12.840;2023-04-24T08:13:44;18.70;67.30
19050;DHT22;9657;45.940;12.840;2023-04-24T08:16:12;18.70;67.50
19050;DHT22;9657;45.940;12.840;2023-04-24T08:18:40;18.70;67.40
19050;DHT22;9657;45.940;12.840;2023-04-24T08:21:07;18.70;67.50
19050;DHT22;9657;45.940;12.840;2023-04-24T08:23:34;18.70;67.50
19050;DHT22;9657;45.940;12.840;2023-04-24T08:26:01;18.80;67.60
19050;DHT22;9657;45.940;12.840;2023-04-24T08:28:28;18.80;67.70
19050;DHT22;9657;45.940;12.840;2023-04-24T08:30:55;18.70;67.50
19050;DHT22;9657;45.940;12.840;2023-04-24T08:33:24;18.70;67.60
19050;DHT22;9657;45.940;12.840;2023-04-24T08:35:52;18.70;67.60
19050;DHT22;9657;45.940;12.840;2023-04-24T08:38:19;18.70;67.70
19050;DHT22;9657;45.940;12.840;2023-04-24T08:40:47;18.80;67.70
19050;DHT22;9657;45.940;12.840;2023-04-24T08:43:16;18.70;67.70
19050;DHT22;9657;45.940;12.840;2023-04-24T08:45:43;18.70;67.70
19050;DHT22;9657;45.940;12.840;2023-04-24T08:48:10;18.70;67.80
19050;DHT22;9657;45.940;12.840;2023-04-24T08:50:39;18.80;67.80
19050;DHT22;9657;45.940;12.840;2023-04-24T08:53:08;18.70;67.80
19050;DHT22;9657;45.940;12.840;2023-04-24T08:55:35;18.70;67.80
19050;DHT22;9657;45.940;12.840;2023-04-24T08:58:04;18.70;67.80
19050;DHT22;9657;45.940;12.840;2023-04-24T09:00:31;18.70;67.80
19050;DHT22;9657;45.940;12.840;2023-04-24T09:03:00;18.70;67.80
19050;DHT22;9657;45.940;12.840;2023-04-24T09:05:28;18.70;67.80
19050;DHT22;9657;45.940;12.840;2023-04-24T09:07:57;18.70;67.80
19050;DHT22;9657;45.940;12.840;2023-04-24T09:10:25;18.70;67.80
19050;DHT22;9657;45.940;12.840;2023-04-24T09:12:52;18.70;67.80
19050;DHT22;9657;45.940;12.840;2023-04-24T09:15:20;18.70;67.80
19050;DHT22;9657;45.940;12.840;2023-04-24T09:17:47;18.70;67.80
19050;DHT22;9657;45.940;12.840;2023-04-24T09:20:15;18.70;67.80
19050;DHT22;9657;45.940;12.840;2023-04-24T09:22:42;18.70;67.90
19050;DHT22;9657;45.940;12.840;2023-04-24T09:25:11;18.70;67.80
19050;DHT22;9657;45.940;12.840;2023-04-24T09:27:42;18.70;67.80
19050;DHT22;9657;45.940;12.840;2023-04-24T09:30:10;18.70;67.90
19050;DHT22;9657;45.940;12.840;2023-04-24T09:32:38;18.70;67.90
19050;DHT22;9657;45.940;12.840;2023-04-24T09:35:07;18.70;67.90
19050;DHT22;9657;45.940;12.840;2023-04-24T09:37:38;18.70;67.90
19050;DHT22;9657;45.940;12.840;2023-04-24T09:40:11;18.70;67.90
19050;DHT22;9657;45.940;12.840;2023-04-24T09:42:38;18.70;67.90
19050;DHT22;9657;45.940;12.840;2023-04-24T09:45:09;18.70;67.90
19050;DHT22;9657;45.940;12.840;2023-04-24T09:47:37;18.70;68.00
19050;DHT22;9657;45.940;12.840;2023-04-24T09:50:14;18.70;67.90
19050;DHT22;9657;45.940;12.840;2023-04-24T09:52:43;18.70;67.80
19050;DHT22;9657;45.940;12.840;2023-04-24T09:55:19;18.70;67.80
19050;DHT22;9657;45.940;12.840;2023-04-24T09:57:50;18.70;67.80
19050;DHT22;9657;45.940;12.840;2023-04-24T10:00:21;18.70;67.80
19050;DHT22;9657;45.940;12.840;2023-04-24T10:02:54;18.70;67.80
19050;DHT22;9657;45.940;12.840;2023-04-24T10:05:24;18.70;67.80
19050;DHT22;9657;45.940;12.840;2023-04-24T10:07:52;18.70;67.80
19050;DHT22;9657;45.940;12.840;2023-04-24T10:10:24;18.70;67.80
19050;DHT22;9657;45.940;12.840;2023-04-24T10:12:51;18.70;67.80
19050;DHT22;9657;45.940;12.840;2023-04-24T10:15:19;18.70;67.80
19050;DHT22;9657;45.940;12.840;2023-04-24T10:17:48;18.70;67.80
19050;DHT22;9657;45.940;12.840;2023-04-24T10:20:19;18.70;67.80
19050;DHT22;9657;45.940;12.840;2023-04-24T10:22:48;18.70;67.80
19050;DHT22;9657;45.940;12.840;2023-04-24T10:25:18;18.70;67.80
19050;DHT22;9657;45.940;12.840;2023-04-24T10:27:47;18.70;67.70
19050;DHT22;9657;45.940;12.840;2023-04-24T10:30:15;18.70;67.70
19050;DHT22;9657;45.940;12.840;2023-04-24T10:32:43;18.70;67.70
19050;DHT22;9657;45.940;12.840;2023-04-24T10:35:13;18.70;67.70
19050;DHT22;9657;45.940;12.840;2023-04-24T10:37:42;18.70;67.70
19050;DHT22;9657;45.940;12.840;2023-04-24T10:40:11;18.70;67.70
19050;DHT22;9657;45.940;12.840;2023-04-24T10:42:40;18.70;67.70
19050;DHT22;9657;45.940;12.840;2023-04-24T10:45:17;18.70;67.70
19050;DHT22;9657;45.940;12.840;2023-04-24T10:47:57;18.70;67.70
19050;DHT22;9657;45.940;12.840;2023-04-24T10:50:26;18.70;67.80
19050;DHT22;9657;45.940;12.840;2023-04-24T10:53:05;18.70;67.70
19050;DHT22;9657;45.940;12.840;2023-04-24T10:55:43;18.70;67.70
19050;DHT22;9657;45.940;12.840;2023-04-24T10:58:11;18.70;67.70
19050;DHT22;9657;45.940;12.840;2023-04-24T11:00:40;18.60;67.70
19050;DHT22;9657;45.940;12.840;2023-04-24T11:03:23;18.70;67.70
19050;DHT22;9657;45.940;12.840;2023-04-24T11:05:57;18.60;67.60
19050;DHT22;9657;45.940;12.840;2023-04-24T11:08:29;18.70;67.70
19050;DHT22;9657;45.940;12.840;2023-04-24T11:11:02;18.60;67.60
19050;DHT22;9657;45.940;12.840;2023-04-24T11:14:06;18.60;67.60
19050;DHT22;9657;45.940;12.840;2023-04-24T11:16:42;18.70;67.70
19050;DHT22;9657;45.940;12.840;2023-04-24T11:19:18;18.60;67.70
19050;DHT22;9657;45.940;12.840;2023-04-24T11:21:48;18.60;67.70
19050;DHT22;9657;45.940;12.840;2023-04-24T11:24:31;18.60;67.70
19050;DHT22;9657;45.940;12.840;2023-04-24T11:27:03;18.60;67.70
19050;DHT22;9657;45.940;12.840;2023-04-24T11:29:40;18.60;67.70
19050;DHT22;9657;45.940;12.840;2023-04-24T11:32:25;18.60;67.70
19050;DHT22;9657;45.940;12.840;2023-04-24T11:34:54;18.60;67.70
19050;DHT22;9657;45.940;12.840;2023-04-24T11:37:22;18.60;67.70
19050;DHT22;9657;45.940;12.840;2023-04-24T11:39:51;18.60;67.70
19050;DHT22;9657;45.940;12.840;2023-04-24T11:42:20;18.60;67.70
19050;DHT22;9657;45.940;12.840;2023-04-24T11:44:48;18.60;67.70
19050;DHT22;9657;45.940;12.840;2023-04-24T11:47:16;18.60;67.70
19050;DHT22;9657;45.940;12.840;2023-04-24T11:49:44;18.60;67.70
19050;DHT22;9657;45.940;12.840;2023-04-24T11:52:15;18.60;67.70
19050;DHT22;9657;45.940;12.840;2023-04-24T11:54:47;18.60;67.70
19050;DHT22;9657;45.940;12.840;2023-04-24T11:57:15;18.60;67.70
19050;DHT22;9657;45.940;12.840;2023-04-24T11:59:42;18.60;67.70
19050;DHT22;9657;45.940;12.840;2023-04-24T12:02:20;18.60;67.70
19050;DHT22;9657;45.940;12.840;2023-04-24T12:04:49;18.60;67.70
19050;DHT22;9657;45.940;12.840;2023-04-24T12:07:16;18.60;67.70
19050;DHT22;9657;45.940;12.840;2023-04-24T12:09:45;18.60;67.70
19050;DHT22;9657;45.940;12.840;2023-04-24T12:12:12;18.60;67.70
19050;DHT22;9657;45.940;12.840;2023-04-24T12:14:48;18.60;67.70
19050;DHT22;9657;45.940;12.840;2023-04-24T12:17:15;18.60;67.70
19050;DHT22;9657;45.940;12.840;2023-04-24T12:19:48;18.60;67.70
19050;DHT22;9657;45.940;12.840;2023-04-24T12:22:16;18.60;67.70
19050;DHT22;9657;45.940;12.840;2023-04-24T12:24:59;18.60;67.70
19050;DHT22;9657;45.940;12.840;2023-04-24T12:27:30;18.60;67.80
19050;DHT22;9657;45.940;12.840;2023-04-24T12:29:58;18.60;67.80
19050;DHT22;9657;45.940;12.840;2023-04-24T12:32:26;18.60;67.80
19050;DHT22;9657;45.940;12.840;2023-04-24T12:34:55;18.60;67.80
19050;DHT22;9657;45.940;12.840;2023-04-24T12:37:23;18.60;67.80
19050;DHT22;9657;45.940;12.840;2023-04-24T12:40:01;18.60;67.80
19050;DHT22;9657;45.940;12.840;2023-04-24T12:42:29;18.60;67.90
19050;DHT22;9657;45.940;12.840;2023-04-24T12:44:57;18.60;67.80
19050;DHT22;9657;45.940;12.840;2023-04-24T12:47:25;18.60;67.90
19050;DHT22;9657;45.940;12.840;2023-04-24T12:49:54;18.60;67.90
19050;DHT22;9657;45.940;12.840;2023-04-24T12:52:22;18.60;67.80
19050;DHT22;9657;45.940;12.840;2023-04-24T12:54:49;18.60;68.10
19050;DHT22;9657;45.940;12.840;2023-04-24T12:57:16;18.60;68.10
19050;DHT22;9657;45.940;12.840;2023-04-24T12:59:43;18.60;68.30
19050;DHT22;9657;45.940;12.840;2023-04-24T13:02:11;18.60;68.40
19050;DHT22;9657;45.940;12.840;2023-04-24T13:04:38;18.60;68.40
19050;DHT22;9657;45.940;12.840;2023-04-24T13:07:06;18.60;68.50
19050;DHT22;9657;45.940;12.840;2023-04-24T13:09:34;18.60;68.40
19050;DHT22;9657;45.940;12.840;2023-04-24T13:12:02;18.60;68.50
19050;DHT22;9657;45.940;12.840;2023-04-24T13:14:31;18.60;68.50
19050;DHT22;9657;45.940;12.840;2023-04-24T13:16:58;18.60;68.30
19050;DHT22;9657;45.940;12.840;2023-04-24T13:19:25;18.60;68.40
19050;DHT22;9657;45.940;12.840;2023-04-24T13:21:53;18.60;68.50
19050;DHT22;9657;45.940;12.840;2023-04-24T13:24:23;18.60;68.50
19050;DHT22;9657;45.940;12.840;2023-04-24T13:26:51;18.60;68.40
19050;DHT22;9657;45.940;12.840;2023-04-24T13:29:18;18.60;68.40
19050;DHT22;9657;45.940;12.840;2023-04-24T13:31:46;18.60;68.40
19050;DHT22;9657;45.940;12.840;2023-04-24T13:34:13;18.60;68.40
19050;DHT22;9657;45.940;12.840;2023-04-24T13:36:40;18.60;68.40
19050;DHT22;9657;45.940;12.840;2023-04-24T13:39:07;18.60;68.30
19050;DHT22;9657;45.940;12.840;2023-04-24T13:41:36;18.60;68.40
19050;DHT22;9657;45.940;12.840;2023-04-24T13:44:03;18.60;68.30
19050;DHT22;9657;45.940;12.840;2023-04-24T13:46:30;18.60;68.30
19050;DHT22;9657;45.940;12.840;2023-04-24T13:48:57;18.60;68.30
19050;DHT22;9657;45.940;12.840;2023-04-24T13:51:25;18.60;68.30
19050;DHT22;9657;45.940;12.840;2023-04-24T13:53:53;18.60;68.30
19050;DHT22;9657;45.940;12.840;2023-04-24T13:56:21;18.60;68.30
19050;DHT22;9657;45.940;12.840;2023-04-24T13:58:49;18.60;68.40
19050;DHT22;9657;45.940;12.840;2023-04-24T14:01:16;18.60;69.10
19050;DHT22;9657;45.940;12.840;2023-04-24T14:03:43;18.60;68.30
19050;DHT22;9657;45.940;12.840;2023-04-24T14:06:10;18.60;68.30
19050;DHT22;9657;45.940;12.840;2023-04-24T14:08:37;18.60;68.30
19050;DHT22;9657;45.940;12.840;2023-04-24T14:11:05;18.60;68.30
19050;DHT22;9657;45.940;12.840;2023-04-24T14:13:32;18.60;68.20
19050;DHT22;9657;45.940;12.840;2023-04-24T14:16:00;18.60;68.30
19050;DHT22;9657;45.940;12.840;2023-04-24T14:18:27;18.60;68.30
19050;DHT22;9657;45.940;12.840;2023-04-24T14:20:54;18.60;68.30
19050;DHT22;9657;45.940;12.840;2023-04-24T14:23:22;18.60;68.20
19050;DHT22;9657;45.940;12.840;2023-04-24T14:25:49;18.60;68.20
19050;DHT22;9657;45.940;12.840;2023-04-24T14:28:18;18.60;68.20
19050;DHT22;9657;45.940;12.840;2023-04-24T14:30:45;18.60;68.20
19050;DHT22;9657;45.940;12.840;2023-04-24T14:33:14;18.60;68.20
19050;DHT22;9657;45.940;12.840;2023-04-24T14:35:41;18.60;68.20
19050;DHT22;9657;45.940;12.840;2023-04-24T14:38:09;18.60;68.20
19050;DHT22;9657;45.940;12.840;2023-04-24T14:40:37;18.60;68.20
19050;DHT22;9657;45.940;12.840;2023-04-24T14:43:04;18.60;68.20
19050;DHT22;9657;45.940;12.840;2023-04-24T14:45:31;18.60;68.10
19050;DHT22;9657;45.940;12.840;2023-04-24T14:47:58;18.60;68.10
19050;DHT22;9657;45.940;12.840;2023-04-24T14:50:27;18.60;68.10
19050;DHT22;9657;45.940;12.840;2023-04-24T14:52:54;18.60;68.10
19050;DHT22;9657;45.940;12.840;2023-04-24T14:55:23;18.60;68.10
19050;DHT22;9657;45.940;12.840;2023-04-24T14:57:50;18.60;68.10
19050;DHT22;9657;45.940;12.840;2023-04-24T15:00:18;18.60;68.10
19050;DHT22;9657;45.940;12.840;2023-04-24T15:02:45;18.60;68.10
19050;DHT22;9657;45.940;12.840;2023-04-24T15:05:12;18.60;68.10
19050;DHT22;9657;45.940;12.840;2023-04-24T15:07:41;18.60;68.00
19050;DHT22;9657;45.940;12.840;2023-04-24T15:10:09;18.60;68.80
19050;DHT22;9657;45.940;12.840;2023-04-24T15:12:36;18.60;68.00
19050;DHT22;9657;45.940;12.840;2023-04-24T15:15:03;18.60;68.00
19050;DHT22;9657;45.940;12.840;2023-04-24T15:17:30;18.60;68.00
19050;DHT22;9657;45.940;12.840;2023-04-24T15:19:58;18.60;68.00
19050;DHT22;9657;45.940;12.840;2023-04-24T15:22:25;18.60;68.00
19050;DHT22;9657;45.940;12.840;2023-04-24T15:24:53;18.60;68.00
19050;DHT22;9657;45.940;12.840;2023-04-24T15:27:20;18.60;68.00
19050;DHT22;9657;45.940;12.840;2023-04-24T15:29:47;18.60;68.00
19050;DHT22;9657;45.940;12.840;2023-04-24T15:32:14;18.60;68.00
19050;DHT22;9657;45.940;12.840;2023-04-24T15:34:41;18.60;68.00
19050;DHT22;9657;45.940;12.840;2023-04-24T15:37:08;18.60;68.10
19050;DHT22;9657;45.940;12.840;2023-04-24T15:39:35;18.60;68.00